Time;durP1;ratioP1;P1;durP2;ratioP2;P2;SDS_P1;SDS_P2;PMS_P1;PMS_P2;Temp;Humidity;BMP_temperature;BMP_pressure;BME280_temperature;BME280_humidity;BME280_pressure;Samples;Min_cycle;Max_cycle;Signal;HPM_P1;HPM_P2
2022/11/26 00:02:16;;;;;;;262.25;66.40;;;;;;;;;;8267266;28;20046;-86
2022/11/26 00:06:28;;;;;;;180.05;47.92;;;;;;;;;;8265272;28;20046;-86
2022/11/26 00:10:34;;;;;;;;;;;;;;;;;;8249634;28;20414;-90
2022/11/26 00:14:36;;;;;;;103.90;29.70;;;;;;;;;;8249904;28;19921;-95
2022/11/26 00:18:39;;;;;;;89.88;26.98;;;;;;;;;;8265221;28;20038;-90
2022/11/26 00:22:46;;;;;;;98.47;31.63;;;;;;;;;;8267594;28;20046;-87
2022/11/26 00:26:48;;;;;;;104.38;30.73;;;;;;;;;;8259265;28;20541;-92
2022/11/26 00:30:51;;;;;;;71.55;24.88;;;;;;;;;;8257025;28;20043;-86
2022/11/26 00:34:54;;;;;;;94.75;27.77;;;;;;;;;;8265080;28;20042;-88
2022/11/26 00:39:02;;;;;;;94.40;28.70;;;;;;;;;;8247906;28;20502;-88
2022/11/26 00:43:04;;;;;;;96.18;28.88;;;;;;;;;;8257605;28;20490;-89
2022/11/26 00:47:09;;;;;;;95.88;29.55;;;;;;;;;;8263510;28;20465;-94
2022/11/26 00:51:14;;;;;;;88.10;25.90;;;;;;;;;;8264066;28;20387;-88
2022/11/26 00:55:29;;;;;;;78.60;25.17;;;;;;;;;;8257133;28;20042;-94
2022/11/26 00:59:31;;;;;;;217.70;59.88;;;;;;;;;;8251041;28;20135;-93
2022/11/26 01:03:34;;;;;;;195.77;57.95;;;;;;;;;;8253364;28;20054;-94
2022/11/26 01:07:36;;;;;;;135.63;44.67;;;;;;;;;;8265905;28;20038;-94
2022/11/26 01:11:40;;;;;;;95.65;29.63;;;;;;;;;;8257555;28;20073;-96
2022/11/26 01:15:42;;;;;;;87.28;28.23;;;;;;;;;;8268404;28;20455;-88
2022/11/26 01:19:45;;;;;;;107.55;28.65;;;;;;;;;;8260453;28;20101;-84
2022/11/26 01:23:47;;;;;;;84.45;27.73;;;;;;;;;;8258765;28;20104;-91
2022/11/26 01:27:52;;;;;;;92.28;29.23;;;;;;;;;;8255508;28;20042;-94
2022/11/26 01:31:54;;;;;;;96.95;29.45;;;;;;;;;;8269413;28;20043;-94
2022/11/26 01:35:57;;;;;;;94.53;30.05;;;;;;;;;;8258798;28;20108;-94
2022/11/26 01:39:59;;;;;;;95.72;28.50;;;;;;;;;;8245509;28;20051;-95
2022/11/26 01:44:06;;;;;;;78.50;27.13;;;;;;;;;;8259051;28;20053;-86
2022/11/26 01:48:29;;;;;;;95.63;28.15;;;;;;;;;;8272749;28;20053;-94
2022/11/26 01:52:32;;;;;;;81.60;28.30;;;;;;;;;;8253153;28;20045;-91
2022/11/26 01:56:39;;;;;;;90.40;25.80;;;;;;;;;;8264927;28;20070;-95
2022/11/26 02:00:43;;;;;;;74.50;25.30;;;;;;;;;;8271815;28;20557;-90
2022/11/26 02:04:53;;;;;;;103.18;35.63;;;;;;;;;;8272249;28;20058;-92
2022/11/26 02:08:56;;;;;;;100.50;29.58;;;;;;;;;;8258162;28;20050;-95
2022/11/26 02:12:59;;;;;;;83.72;28.05;;;;;;;;;;8270669;28;20151;-93
2022/11/26 02:17:17;;;;;;;78.22;23.45;;;;;;;;;;8248133;28;20054;-92
2022/11/26 02:21:26;;;;;;;76.20;25.27;;;;;;;;;;8274119;28;20064;-93
2022/11/26 02:25:42;;;;;;;75.13;24.77;;;;;;;;;;8244419;28;20402;-95
2022/11/26 02:30:05;;;;;;;81.03;25.48;;;;;;;;;;8270648;28;20050;-94
2022/11/26 02:34:15;;;;;;;73.35;24.85;;;;;;;;;;8245125;28;20508;-93
2022/11/26 02:38:21;;;;;;;92.25;30.48;;;;;;;;;;8256938;28;20498;-94
2022/11/26 02:42:27;;;;;;;86.82;29.80;;;;;;;;;;8256002;28;20050;-90
2022/11/26 02:46:31;;;;;;;68.28;23.17;;;;;;;;;;8269516;28;20121;-94
2022/11/26 02:50:39;;;;;;;75.75;23.20;;;;;;;;;;8255374;28;20046;-94
2022/11/26 02:54:42;;;;;;;82.65;28.50;;;;;;;;;;8269712;28;20073;-93
2022/11/26 02:58:45;;;;;;;77.68;26.75;;;;;;;;;;8259530;28;20454;-94
2022/11/26 03:02:56;;;;;;;86.20;26.70;;;;;;;;;;8267210;28;20108;-87
2022/11/26 03:07:03;;;;;;;74.50;24.65;;;;;;;;;;8269562;28;20116;-94
2022/11/26 03:11:06;;;;;;;84.18;24.88;;;;;;;;;;8256090;28;20050;-94
2022/11/26 03:15:10;;;;;;;94.60;27.02;;;;;;;;;;8250228;28;20049;-94
2022/11/26 03:19:14;;;;;;;69.65;24.08;;;;;;;;;;8259883;28;20050;-93
2022/11/26 03:23:16;;;;;;;105.85;29.58;;;;;;;;;;8268042;28;20047;-93
2022/11/26 03:27:19;;;;;;;87.40;25.67;;;;;;;;;;8262267;28;20058;-95
2022/11/26 03:31:21;;;;;;;74.13;24.58;;;;;;;;;;8250556;28;20050;-94
2022/11/26 03:35:25;;;;;;;76.70;23.98;;;;;;;;;;8250462;28;20738;-93
2022/11/26 03:39:28;;;;;;;68.30;24.33;;;;;;;;;;8259234;28;20046;-93
2022/11/26 03:43:30;;;;;;;79.40;26.25;;;;;;;;;;8254404;28;20177;-93
2022/11/26 03:47:33;;;;;;;86.22;29.83;;;;;;;;;;8262699;28;20043;-85
2022/11/26 03:51:37;;;;;;;70.28;20.98;;;;;;;;;;8258905;28;20050;-94
2022/11/26 03:55:40;;;;;;;71.93;23.92;;;;;;;;;;8255340;28;20043;-95
2022/11/26 03:59:43;;;;;;;75.22;27.08;;;;;;;;;;8266422;28;20098;-87
2022/11/26 04:03:46;;;;;;;88.00;26.27;;;;;;;;;;8258913;28;20054;-95
2022/11/26 04:07:50;;;;;;;85.47;26.50;;;;;;;;;;8268532;28;20043;-91
2022/11/26 04:11:52;;;;;;;82.20;30.52;;;;;;;;;;8268531;28;20518;-87
2022/11/26 04:15:56;;;;;;;103.32;33.50;;;;;;;;;;8268658;28;20548;-94
2022/11/26 04:19:58;;;;;;;102.45;35.60;;;;;;;;;;8265848;28;20053;-89
2022/11/26 04:24:02;;;;;;;99.00;32.63;;;;;;;;;;8243570;28;20049;-94
2022/11/26 04:28:05;;;;;;;89.65;34.10;;;;;;;;;;8254279;28;20046;-89
2022/11/26 04:32:07;;;;;;;94.95;35.75;;;;;;;;;;8249131;28;20035;-94
2022/11/26 04:36:10;;;;;;;92.78;28.88;;;;;;;;;;8249127;28;20530;-91
2022/11/26 04:40:14;;;;;;;74.47;27.23;;;;;;;;;;8248459;28;20414;-94
2022/11/26 04:44:17;;;;;;;81.40;27.13;;;;;;;;;;8248695;28;20047;-92
2022/11/26 04:48:19;;;;;;;88.43;29.25;;;;;;;;;;8265435;28;20051;-89
2022/11/26 04:52:25;;;;;;;59.25;24.27;;;;;;;;;;8265858;28;20043;-93
2022/11/26 04:56:28;;;;;;;78.82;29.58;;;;;;;;;;8248543;28;20077;-91
2022/11/26 05:00:31;;;;;;;87.82;27.95;;;;;;;;;;8266795;28;20057;-87
2022/11/26 05:04:33;;;;;;;93.90;29.45;;;;;;;;;;8241710;28;20062;-89
2022/11/26 05:08:36;;;;;;;74.07;27.02;;;;;;;;;;8272078;28;20046;-93
2022/11/26 05:12:40;;;;;;;74.13;26.65;;;;;;;;;;8260245;28;20047;-88
2022/11/26 05:16:42;;;;;;;92.38;31.48;;;;;;;;;;8270775;28;20548;-94
2022/11/26 05:20:45;;;;;;;102.35;38.00;;;;;;;;;;8272210;28;20046;-88
2022/11/26 05:24:47;;;;;;;110.95;42.13;;;;;;;;;;8271489;28;20042;-94
2022/11/26 05:28:51;;;;;;;86.95;31.15;;;;;;;;;;8271315;28;20422;-92
2022/11/26 05:32:54;;;;;;;84.43;30.77;;;;;;;;;;8271136;28;20042;-93
2022/11/26 05:36:56;;;;;;;71.90;27.20;;;;;;;;;;8271258;28;20566;-92
2022/11/26 05:40:59;;;;;;;83.10;31.05;;;;;;;;;;8273105;28;20051;-86
2022/11/26 05:45:07;;;;;;;159.25;53.90;;;;;;;;;;8271774;28;20490;-92
2022/11/26 05:49:10;;;;;;;112.55;39.53;;;;;;;;;;8256628;28;20050;-86
2022/11/26 05:53:12;;;;;;;104.45;37.25;;;;;;;;;;8270435;28;20053;-91
2022/11/26 05:57:15;;;;;;;112.72;36.13;;;;;;;;;;8269871;28;20057;-93
2022/11/26 06:01:19;;;;;;;95.53;34.45;;;;;;;;;;8270064;28;20513;-87
2022/11/26 06:05:22;;;;;;;76.60;26.52;;;;;;;;;;8269477;28;20124;-86
2022/11/26 06:09:24;;;;;;;84.10;29.33;;;;;;;;;;8256213;28;20117;-89
2022/11/26 06:13:27;;;;;;;90.65;29.83;;;;;;;;;;8269782;28;20042;-93
2022/11/26 06:17:30;;;;;;;72.97;25.90;;;;;;;;;;8268683;28;20054;-92
2022/11/26 06:21:33;;;;;;;100.05;34.63;;;;;;;;;;8243184;28;20050;-94
2022/11/26 06:25:36;;;;;;;74.95;27.23;;;;;;;;;;8270082;28;20501;-94
2022/11/26 06:29:38;;;;;;;81.75;25.27;;;;;;;;;;8269770;28;20053;-93
2022/11/26 06:33:42;;;;;;;90.03;29.02;;;;;;;;;;8269687;28;20047;-92
2022/11/26 06:37:45;;;;;;;184.40;53.47;;;;;;;;;;8269519;28;20046;-89
2022/11/26 06:41:47;;;;;;;233.15;48.38;;;;;;;;;;8269251;28;20466;-86
2022/11/26 06:45:50;;;;;;;164.63;40.40;;;;;;;;;;8269640;28;20046;-92
2022/11/26 06:49:54;;;;;;;221.55;44.75;;;;;;;;;;8265257;28;20054;-94
2022/11/26 06:53:57;;;;;;;197.50;40.08;;;;;;;;;;8257423;28;20062;-95
2022/11/26 06:57:59;;;;;;;297.83;65.15;;;;;;;;;;8256543;28;20051;-90
2022/11/26 07:02:02;;;;;;;230.45;50.78;;;;;;;;;;8250995;28;20043;-92
2022/11/26 07:06:16;;;;;;;328.60;54.58;;;;;;;;;;8257009;28;20137;-93
2022/11/26 07:10:19;;;;;;;299.45;62.92;;;;;;;;;;8262068;28;20147;-86
2022/11/26 07:14:21;;;;;;;340.58;65.88;;;;;;;;;;8256987;28;20492;-84
2022/11/26 07:18:24;;;;;;;349.02;65.28;;;;;;;;;;8268912;28;20046;-90
2022/11/26 07:22:28;;;;;;;348.55;73.53;;;;;;;;;;8254771;28;20049;-93
2022/11/26 07:26:30;;;;;;;283.08;66.80;;;;;;;;;;8253925;28;20046;-93
2022/11/26 07:30:33;;;;;;;159.70;40.83;;;;;;;;;;8269009;28;20047;-92
2022/11/26 07:34:35;;;;;;;134.50;39.08;;;;;;;;;;8260212;28;20048;-90
2022/11/26 07:38:39;;;;;;;199.63;48.15;;;;;;;;;;8257435;28;20042;-86
2022/11/26 07:42:42;;;;;;;138.05;40.00;;;;;;;;;;8254103;28;20046;-93
2022/11/26 07:46:44;;;;;;;153.30;47.15;;;;;;;;;;8267808;28;20077;-93
2022/11/26 07:50:47;;;;;;;113.68;35.85;;;;;;;;;;8266397;28;20046;-91
2022/11/26 07:54:51;;;;;;;126.50;37.47;;;;;;;;;;8267411;28;20486;-85
2022/11/26 07:58:54;;;;;;;174.52;53.60;;;;;;;;;;8252002;28;20057;-90
2022/11/26 08:02:56;;;;;;;196.05;62.28;;;;;;;;;;8251215;28;20527;-93
2022/11/26 08:06:59;;;;;;;221.73;69.03;;;;;;;;;;8265667;28;20050;-89
2022/11/26 08:11:04;;;;;;;127.47;36.53;;;;;;;;;;8266395;28;20042;-92
2022/11/26 08:15:08;;;;;;;125.88;43.33;;;;;;;;;;8266923;28;20112;-92
2022/11/26 08:19:13;;;;;;;122.97;42.42;;;;;;;;;;8266766;28;20509;-92
2022/11/26 08:23:15;;;;;;;148.65;48.00;;;;;;;;;;8265939;28;20050;-89
2022/11/26 08:27:20;;;;;;;160.73;48.40;;;;;;;;;;8252936;28;20042;-92
2022/11/26 08:31:33;;;;;;;133.68;46.92;;;;;;;;;;8264978;28;20060;-94
2022/11/26 08:35:39;;;;;;;143.02;45.80;;;;;;;;;;8257289;28;20053;-91
2022/11/26 08:39:42;;;;;;;172.82;58.78;;;;;;;;;;8268481;28;20509;-87
2022/11/26 08:43:46;;;;;;;209.52;70.05;;;;;;;;;;8270062;28;20108;-90
2022/11/26 08:47:49;;;;;;;276.75;45.10;;;;;;;;;;8265563;28;20054;-92
2022/11/26 08:51:58;;;;;;;126.47;39.67;;;;;;;;;;8264565;28;20042;-89
2022/11/26 08:56:01;;;;;;;118.32;37.17;;;;;;;;;;8257844;28;20046;-89
2022/11/26 09:00:09;;;;;;;126.18;42.80;;;;;;;;;;8263737;28;20050;-93
2022/11/26 09:04:15;;;;;;;150.50;45.60;;;;;;;;;;8270478;28;20062;-89
2022/11/26 09:08:21;;;;;;;225.10;62.85;;;;;;;;;;8270346;28;20113;-86
2022/11/26 09:12:23;;;;;;;233.32;62.08;;;;;;;;;;8250709;28;20262;-90
2022/11/26 09:16:28;;;;;;;362.60;116.00;;;;;;;;;;8273217;28;20100;-88
2022/11/26 09:20:31;;;;;;;213.48;65.32;;;;;;;;;;8270367;28;20554;-94
2022/11/26 09:24:34;;;;;;;165.55;52.55;;;;;;;;;;8271654;28;20104;-91
2022/11/26 09:28:38;;;;;;;167.40;52.25;;;;;;;;;;8247864;28;20049;-90
2022/11/26 09:32:42;;;;;;;193.18;63.60;;;;;;;;;;8268521;28;20058;-91
2022/11/26 09:36:45;;;;;;;224.02;74.32;;;;;;;;;;8267251;28;20222;-90
2022/11/26 09:41:05;;;;;;;174.52;51.30;;;;;;;;;;8260090;28;20121;-90
2022/11/26 09:45:18;;;;;;;140.75;41.05;;;;;;;;;;8249870;28;20490;-85
2022/11/26 09:49:22;;;;;;;137.18;42.80;;;;;;;;;;8264119;28;20149;-86
2022/11/26 09:53:28;;;;;;;290.10;44.67;;;;;;;;;;8253195;28;20042;-91
2022/11/26 09:57:41;;;;;;;105.75;38.72;;;;;;;;;;8255219;28;20050;-91
2022/11/26 10:01:43;;;;;;;256.27;70.95;;;;;;;;;;8252038;28;20046;-91
2022/11/26 10:05:57;;;;;;;113.32;39.65;;;;;;;;;;8263967;28;20090;-87
2022/11/26 10:10:08;;;;;;;202.18;56.90;;;;;;;;;;8256335;28;20118;-89
2022/11/26 10:14:27;;;;;;;114.68;39.10;;;;;;;;;;8255495;28;20058;-88
2022/11/26 10:18:38;;;;;;;114.90;39.35;;;;;;;;;;8253559;28;20460;-89
2022/11/26 10:22:49;;;;;;;146.93;37.47;;;;;;;;;;8255470;28;20096;-89
2022/11/26 10:26:53;;;;;;;120.65;39.20;;;;;;;;;;8261476;28;20053;-88
2022/11/26 10:30:58;;;;;;;112.28;38.38;;;;;;;;;;8262512;28;20057;-87
2022/11/26 10:35:01;;;;;;;131.48;36.28;;;;;;;;;;8244422;28;20045;-86
2022/11/26 10:39:06;;;;;;;119.85;38.90;;;;;;;;;;8242801;28;20622;-91
2022/11/26 10:43:18;;;;;;;126.75;39.40;;;;;;;;;;8267455;28;20128;-90
2022/11/26 10:47:26;;;;;;;146.05;42.75;;;;;;;;;;8265206;28;20051;-90
2022/11/26 10:51:31;;;;;;;141.48;44.10;;;;;;;;;;8263758;28;20050;-89
2022/11/26 10:55:39;;;;;;;141.52;44.40;;;;;;;;;;8243298;28;20047;-91
2022/11/26 10:59:50;;;;;;;159.52;46.33;;;;;;;;;;8266806;28;20137;-92
2022/11/26 11:03:55;;;;;;;194.18;44.42;;;;;;;;;;8269288;28;20062;-90
2022/11/26 11:07:57;;;;;;;272.30;40.15;;;;;;;;;;8267228;28;20046;-92
2022/11/26 11:12:22;;;;;;;157.70;46.88;;;;;;;;;;8262935;28;20078;-86
2022/11/26 11:16:28;;;;;;;168.32;43.70;;;;;;;;;;8261038;28;20043;-88
2022/11/26 11:20:36;;;;;;;158.98;44.63;;;;;;;;;;8253450;28;20061;-91
2022/11/26 11:24:39;;;;;;;146.80;44.33;;;;;;;;;;8267204;28;20412;-92
2022/11/26 11:28:48;;;;;;;184.00;43.42;;;;;;;;;;8253289;28;20050;-87
2022/11/26 11:32:51;;;;;;;188.15;42.78;;;;;;;;;;8267496;28;20120;-93
2022/11/26 11:37:02;;;;;;;161.30;42.50;;;;;;;;;;8266687;28;20050;-89
2022/11/26 11:41:11;;;;;;;202.43;41.72;;;;;;;;;;8253168;28;20509;-90
2022/11/26 11:45:26;;;;;;;231.57;42.00;;;;;;;;;;8267001;28;20085;-92
2022/11/26 11:49:41;;;;;;;204.23;43.08;;;;;;;;;;8267143;28;20125;-93
2022/11/26 11:53:55;;;;;;;247.98;38.97;;;;;;;;;;8255126;28;20134;-91
2022/11/26 11:58:13;;;;;;;163.80;36.53;;;;;;;;;;8265280;28;20054;-92
2022/11/26 12:02:42;;;;;;;182.18;38.20;;;;;;;;;;8266527;28;20050;-91
2022/11/26 12:06:56;;;;;;;333.05;40.72;;;;;;;;;;8267589;28;20478;-92
2022/11/26 12:11:13;;;;;;;387.80;47.20;;;;;;;;;;8266729;28;20108;-88
2022/11/26 12:15:23;;;;;;;173.13;38.47;;;;;;;;;;8244528;28;20053;-84
2022/11/26 12:19:36;;;;;;;181.77;38.40;;;;;;;;;;8265766;28;20043;-93
2022/11/26 12:23:47;;;;;;;231.63;38.80;;;;;;;;;;8260210;28;20054;-89
2022/11/26 12:27:56;;;;;;;191.70;38.70;;;;;;;;;;8256790;28;20050;-89
2022/11/26 12:32:05;;;;;;;377.35;43.22;;;;;;;;;;8249929;28;20049;-92
2022/11/26 12:36:17;;;;;;;137.05;38.95;;;;;;;;;;8260608;28;20050;-91
2022/11/26 12:40:25;;;;;;;;;;;;;;;;;;8252373;28;20046;-92
2022/11/26 12:44:33;;;;;;;123.55;33.45;;;;;;;;;;8252679;28;20016;-92
2022/11/26 12:48:44;;;;;;;294.00;34.92;;;;;;;;;;8244797;28;20043;-92
2022/11/26 12:52:53;;;;;;;144.10;38.45;;;;;;;;;;8248317;28;20678;-90
2022/11/26 12:57:03;;;;;;;124.97;36.95;;;;;;;;;;8254446;28;20497;-89
2022/11/26 13:01:06;;;;;;;167.93;37.60;;;;;;;;;;8250731;28;20054;-86
2022/11/26 13:05:15;;;;;;;116.32;37.35;;;;;;;;;;8256679;28;20058;-90
2022/11/26 13:09:35;;;;;;;146.48;37.08;;;;;;;;;;8256660;28;20065;-90
2022/11/26 13:13:48;;;;;;;135.88;41.33;;;;;;;;;;8247815;28;20054;-92
2022/11/26 13:17:52;;;;;;;135.90;36.05;;;;;;;;;;8243191;28;20423;-91
2022/11/26 13:22:14;;;;;;;236.05;42.65;;;;;;;;;;8261371;28;20050;-88
2022/11/26 13:26:43;;;;;;;126.38;36.40;;;;;;;;;;8253436;28;20073;-87
2022/11/26 13:31:00;;;;;;;128.95;35.75;;;;;;;;;;8266602;28;20458;-88
2022/11/26 13:35:18;;;;;;;195.48;37.63;;;;;;;;;;8256621;28;20050;-91
2022/11/26 13:39:49;;;;;;;112.35;32.35;;;;;;;;;;8263556;28;20042;-92
2022/11/26 13:44:37;;;;;;;128.52;30.98;;;;;;;;;;8262911;28;20042;-87
2022/11/26 13:48:49;;;;;;;114.75;29.67;;;;;;;;;;8268841;28;20406;-90
2022/11/26 13:52:55;;;;;;;99.38;29.73;;;;;;;;;;8255890;28;20094;-93
2022/11/26 13:57:02;;;;;;;86.72;27.92;;;;;;;;;;8268861;28;20038;-91
2022/11/26 14:01:31;;;;;;;130.57;31.98;;;;;;;;;;8269387;28;20117;-90
2022/11/26 14:06:07;;;;;;;191.98;31.10;;;;;;;;;;8264018;28;20105;-91
2022/11/26 14:10:41;;;;;;;206.38;31.52;;;;;;;;;;8270348;28;20506;-90
2022/11/26 14:14:46;;;;;;;150.48;32.38;;;;;;;;;;8267465;28;20050;-92
2022/11/26 14:18:59;;;;;;;194.48;36.42;;;;;;;;;;8257812;28;20042;-88
2022/11/26 14:23:44;;;;;;;160.07;31.67;;;;;;;;;;8256596;28;20452;-92
2022/11/26 14:27:53;;;;;;;169.13;28.30;;;;;;;;;;8255545;28;20047;-93
2022/11/26 14:31:56;;;;;;;160.20;28.73;;;;;;;;;;8254618;28;20093;-90
2022/11/26 14:36:00;;;;;;;114.85;23.42;;;;;;;;;;8257975;28;20379;-93
2022/11/26 14:40:06;;;;;;;140.40;27.25;;;;;;;;;;8260727;28;20457;-92
2022/11/26 14:44:12;;;;;;;138.23;31.33;;;;;;;;;;8268150;28;20078;-92
2022/11/26 14:48:25;;;;;;;82.70;27.00;;;;;;;;;;8266578;28;20395;-93
2022/11/26 14:52:33;;;;;;;62.65;21.38;;;;;;;;;;8262201;28;20244;-90
2022/11/26 14:56:38;;;;;;;108.57;31.25;;;;;;;;;;8263658;28;20046;-88
2022/11/26 15:00:40;;;;;;;66.93;23.73;;;;;;;;;;8266776;28;20046;-90
2022/11/26 15:04:44;;;;;;;68.35;23.10;;;;;;;;;;8261201;28;20057;-93
2022/11/26 15:08:48;;;;;;;71.13;22.40;;;;;;;;;;8266292;28;20125;-90
2022/11/26 15:12:52;;;;;;;63.83;23.85;;;;;;;;;;8258561;28;20066;-89
2022/11/26 15:17:00;;;;;;;80.13;28.17;;;;;;;;;;8257612;28;20475;-90
2022/11/26 15:21:05;;;;;;;77.43;23.13;;;;;;;;;;8256925;28;20127;-92
2022/11/26 15:25:16;;;;;;;78.78;25.40;;;;;;;;;;8254803;28;20064;-92
2022/11/26 15:29:31;;;;;;;61.03;19.63;;;;;;;;;;8244223;28;20057;-93
2022/11/26 15:33:35;;;;;;;77.15;22.38;;;;;;;;;;8255399;28;20046;-89
2022/11/26 15:37:38;;;;;;;79.15;23.98;;;;;;;;;;8243121;28;20596;-87
2022/11/26 15:41:41;;;;;;;75.40;23.10;;;;;;;;;;8239977;28;20483;-90
2022/11/26 15:45:44;;;;;;;76.57;24.45;;;;;;;;;;8249782;28;20046;-91
2022/11/26 15:49:50;;;;;;;86.05;24.23;;;;;;;;;;8248705;28;20529;-90
2022/11/26 15:53:54;;;;;;;73.75;21.58;;;;;;;;;;8251391;28;20085;-92
2022/11/26 15:58:02;;;;;;;63.92;21.48;;;;;;;;;;8231498;28;20062;-91
2022/11/26 16:02:16;;;;;;;56.70;19.48;;;;;;;;;;8261430;28;20061;-90
2022/11/26 16:06:29;;;;;;;42.60;15.63;;;;;;;;;;8252439;28;20477;-87
2022/11/26 16:10:35;;;;;;;46.88;16.13;;;;;;;;;;8254010;28;20050;-89
2022/11/26 16:14:40;;;;;;;43.33;14.85;;;;;;;;;;8253690;28;20687;-90
2022/11/26 16:18:50;;;;;;;57.17;18.95;;;;;;;;;;8246135;28;20391;-91
2022/11/26 16:22:55;;;;;;;42.58;15.23;;;;;;;;;;8253670;28;20093;-89
2022/11/26 16:27:01;;;;;;;61.97;20.02;;;;;;;;;;8254142;28;20062;-92
2022/11/26 16:31:05;;;;;;;64.78;20.85;;;;;;;;;;8252749;28;20053;-87
2022/11/26 16:35:08;;;;;;;57.30;17.98;;;;;;;;;;8251366;28;20046;-90
2022/11/26 16:39:11;;;;;;;54.72;16.23;;;;;;;;;;8250868;28;20057;-85
2022/11/26 16:43:15;;;;;;;62.38;19.15;;;;;;;;;;8245167;28;20050;-90
2022/11/26 16:47:24;;;;;;;70.75;20.08;;;;;;;;;;8256663;28;20035;-88
2022/11/26 16:51:27;;;;;;;31.27;10.63;;;;;;;;;;8261352;28;20449;-92
2022/11/26 16:55:30;;;;;;;47.15;15.52;;;;;;;;;;8252184;28;20047;-88
2022/11/26 16:59:32;;;;;;;43.47;16.10;;;;;;;;;;8241905;28;20054;-91
2022/11/26 17:03:37;;;;;;;50.80;18.70;;;;;;;;;;8267661;28;20553;-90
2022/11/26 17:07:45;;;;;;;56.45;18.27;;;;;;;;;;8262516;28;20042;-88
2022/11/26 17:11:48;;;;;;;60.10;20.20;;;;;;;;;;8259997;28;20055;-84
2022/11/26 17:15:51;;;;;;;64.88;22.52;;;;;;;;;;8261329;28;20049;-92
2022/11/26 17:19:55;;;;;;;58.30;20.92;;;;;;;;;;8256100;28;20549;-90
2022/11/26 17:23:57;;;;;;;60.55;19.60;;;;;;;;;;8261101;28;20152;-92
2022/11/26 17:28:00;;;;;;;64.13;21.50;;;;;;;;;;8258279;28;20045;-92
2022/11/26 17:32:03;;;;;;;48.95;16.55;;;;;;;;;;8250925;28;20182;-87
2022/11/26 17:36:16;;;;;;;41.22;14.15;;;;;;;;;;8252193;28;20054;-90
2022/11/26 17:40:21;;;;;;;;;;;;;;;;;;8251130;28;20043;-92
2022/11/26 17:44:24;;;;;;;47.17;13.43;;;;;;;;;;8252466;28;19929;-90
2022/11/26 17:48:27;;;;;;;41.50;14.57;;;;;;;;;;8260123;28;20483;-91
2022/11/26 17:52:31;;;;;;;51.95;18.48;;;;;;;;;;8258087;28;20053;-93
2022/11/26 17:56:34;;;;;;;40.95;12.68;;;;;;;;;;8251793;28;20034;-88
2022/11/26 18:00:37;;;;;;;32.78;11.90;;;;;;;;;;8258543;28;20046;-92
2022/11/26 18:04:40;;;;;;;51.22;18.38;;;;;;;;;;8203976;28;1460424;-87
2022/11/26 18:08:44;;;;;;;67.38;21.63;;;;;;;;;;8258134;28;20043;-89
2022/11/26 18:12:47;;;;;;;51.75;19.70;;;;;;;;;;8255309;28;20074;-92
2022/11/26 18:16:50;;;;;;;49.88;16.67;;;;;;;;;;8263432;28;20050;-88
2022/11/26 18:20:53;;;;;;;45.28;14.63;;;;;;;;;;8258169;28;20442;-88
2022/11/26 18:24:58;;;;;;;54.60;17.63;;;;;;;;;;8257253;28;20046;-91
2022/11/26 18:29:04;;;;;;;48.38;17.50;;;;;;;;;;8236968;28;20061;-87
2022/11/26 18:33:08;;;;;;;52.20;19.25;;;;;;;;;;8233732;28;20051;-88
2022/11/26 18:37:12;;;;;;;48.20;17.23;;;;;;;;;;8263083;28;20045;-92
2022/11/26 18:41:17;;;;;;;37.10;11.63;;;;;;;;;;8262669;28;20038;-90
2022/11/26 18:45:20;;;;;;;32.95;13.20;;;;;;;;;;8251878;28;20174;-91
2022/11/26 18:49:24;;;;;;;40.25;14.27;;;;;;;;;;8263667;28;20053;-86
2022/11/26 18:53:27;;;;;;;36.70;13.07;;;;;;;;;;8259816;28;20165;-90
2022/11/26 18:57:32;;;;;;;44.53;13.80;;;;;;;;;;8259107;28;20044;-88
2022/11/26 19:01:35;;;;;;;47.28;15.98;;;;;;;;;;8252766;28;20043;-90
2022/11/26 19:05:38;;;;;;;49.90;16.85;;;;;;;;;;8257570;28;20387;-87
2022/11/26 19:09:41;;;;;;;29.42;11.15;;;;;;;;;;8254707;28;20046;-90
2022/11/26 19:13:46;;;;;;;52.28;16.00;;;;;;;;;;8258733;28;20125;-91
2022/11/26 19:17:49;;;;;;;45.47;15.73;;;;;;;;;;8251539;28;20053;-89
2022/11/26 19:21:55;;;;;;;35.70;14.60;;;;;;;;;;8250034;28;20486;-89
2022/11/26 19:26:04;;;;;;;38.78;12.85;;;;;;;;;;8266970;28;20097;-90
2022/11/26 19:30:15;;;;;;;44.65;15.32;;;;;;;;;;8267526;28;20050;-91
2022/11/26 19:34:18;;;;;;;59.63;19.92;;;;;;;;;;8266191;28;20054;-89
2022/11/26 19:38:22;;;;;;;49.67;17.17;;;;;;;;;;8266942;28;20129;-93
2022/11/26 19:42:25;;;;;;;38.22;12.85;;;;;;;;;;8266604;28;20137;-87
2022/11/26 19:46:29;;;;;;;47.22;17.30;;;;;;;;;;8266658;28;20057;-86
2022/11/26 19:50:32;;;;;;;47.53;13.68;;;;;;;;;;8266518;28;20057;-90
2022/11/26 19:54:35;;;;;;;47.30;16.40;;;;;;;;;;8266397;28;20050;-86
2022/11/26 19:58:38;;;;;;;51.63;18.00;;;;;;;;;;8266144;28;20336;-91
2022/11/26 20:02:50;;;;;;;51.28;15.23;;;;;;;;;;8266073;28;20055;-89
2022/11/26 20:06:53;;;;;;;59.53;19.05;;;;;;;;;;8265949;28;20478;-90
2022/11/26 20:11:01;;;;;;;50.55;19.30;;;;;;;;;;8264971;28;20218;-90
2022/11/26 20:15:04;;;;;;;48.30;17.10;;;;;;;;;;8265743;28;20131;-92
2022/11/26 20:19:11;;;;;;;57.60;18.25;;;;;;;;;;8266175;28;20050;-90
2022/11/26 20:23:13;;;;;;;56.50;18.98;;;;;;;;;;8265797;28;20085;-89
2022/11/26 20:27:16;;;;;;;61.50;17.52;;;;;;;;;;8251931;28;20046;-90
2022/11/26 20:31:19;;;;;;;50.13;18.40;;;;;;;;;;8254265;28;20134;-88
2022/11/26 20:35:24;;;;;;;60.75;19.35;;;;;;;;;;8267799;28;20046;-92
2022/11/26 20:39:27;;;;;;;48.47;17.27;;;;;;;;;;8272364;28;20061;-91
2022/11/26 20:43:30;;;;;;;73.60;21.45;;;;;;;;;;8272259;28;20081;-90
2022/11/26 20:47:33;;;;;;;70.70;22.65;;;;;;;;;;8266859;28;20406;-90
2022/11/26 20:51:38;;;;;;;91.50;24.67;;;;;;;;;;8250774;28;20046;-89
2022/11/26 20:55:41;;;;;;;75.43;22.05;;;;;;;;;;8271855;28;20057;-90
2022/11/26 20:59:44;;;;;;;51.42;18.80;;;;;;;;;;8258271;28;20049;-91
2022/11/26 21:03:47;;;;;;;62.85;19.55;;;;;;;;;;8271496;28;20058;-89
2022/11/26 21:07:52;;;;;;;61.67;20.23;;;;;;;;;;8271495;28;20100;-88
2022/11/26 21:11:56;;;;;;;68.07;19.17;;;;;;;;;;8248906;28;20129;-90
2022/11/26 21:16:02;;;;;;;70.68;22.75;;;;;;;;;;8260378;28;20499;-88
2022/11/26 21:20:06;;;;;;;51.33;18.00;;;;;;;;;;8270434;28;20042;-90
2022/11/26 21:24:10;;;;;;;48.45;15.35;;;;;;;;;;8271557;28;20056;-92
2022/11/26 21:28:13;;;;;;;50.25;17.77;;;;;;;;;;8271246;28;20057;-91
2022/11/26 21:32:16;;;;;;;60.28;19.00;;;;;;;;;;8271170;28;20045;-89
2022/11/26 21:36:18;;;;;;;57.70;17.15;;;;;;;;;;8271532;28;20495;-90
2022/11/26 21:40:24;;;;;;;55.25;18.65;;;;;;;;;;8270121;28;20130;-84
2022/11/26 21:44:27;;;;;;;54.63;16.42;;;;;;;;;;8257123;28;20579;-92
2022/11/26 21:48:30;;;;;;;52.17;16.67;;;;;;;;;;8269171;28;20634;-91
2022/11/26 21:52:33;;;;;;;43.53;16.30;;;;;;;;;;8256468;28;20046;-90
2022/11/26 21:56:37;;;;;;;50.42;17.15;;;;;;;;;;8266398;28;20481;-91
2022/11/26 22:00:41;;;;;;;52.47;18.20;;;;;;;;;;8270254;28;20125;-92
2022/11/26 22:04:43;;;;;;;39.72;14.35;;;;;;;;;;8269969;28;20064;-90
2022/11/26 22:08:47;;;;;;;59.28;20.83;;;;;;;;;;8270325;28;20089;-88
2022/11/26 22:12:51;;;;;;;60.10;19.73;;;;;;;;;;8269792;28;20634;-90
2022/11/26 22:16:54;;;;;;;62.83;20.55;;;;;;;;;;8256254;28;20047;-91
2022/11/26 22:20:56;;;;;;;59.13;21.88;;;;;;;;;;8253176;28;20493;-92
2022/11/26 22:24:59;;;;;;;50.65;18.92;;;;;;;;;;8261323;28;20101;-91
2022/11/26 22:29:03;;;;;;;67.05;21.63;;;;;;;;;;8260865;28;20046;-89
2022/11/26 22:33:06;;;;;;;64.07;20.15;;;;;;;;;;8258717;28;20070;-92
2022/11/26 22:37:09;;;;;;;58.13;18.52;;;;;;;;;;8252820;28;20189;-91
2022/11/26 22:41:14;;;;;;;58.22;17.70;;;;;;;;;;8253585;28;20501;-92
2022/11/26 22:45:18;;;;;;;63.03;19.30;;;;;;;;;;8252827;28;20042;-91
2022/11/26 22:49:20;;;;;;;65.85;19.00;;;;;;;;;;8260444;28;20042;-93
2022/11/26 22:53:23;;;;;;;73.85;21.05;;;;;;;;;;8260571;28;20454;-91
2022/11/26 22:57:26;;;;;;;72.72;21.67;;;;;;;;;;8256323;28;20051;-89
2022/11/26 23:01:32;;;;;;;67.05;21.35;;;;;;;;;;8264045;28;20050;-90
2022/11/26 23:05:37;;;;;;;85.45;20.90;;;;;;;;;;8251047;28;20051;-91
2022/11/26 23:09:40;;;;;;;78.75;21.20;;;;;;;;;;8249350;28;20485;-92
2022/11/26 23:13:44;;;;;;;59.33;20.73;;;;;;;;;;8258195;28;20046;-90
2022/11/26 23:17:48;;;;;;;65.03;21.73;;;;;;;;;;8250406;28;20069;-93
2022/11/26 23:21:51;;;;;;;72.97;19.45;;;;;;;;;;8250718;28;20046;-91
2022/11/26 23:26:01;;;;;;;70.45;21.98;;;;;;;;;;8258640;28;20070;-85
2022/11/26 23:30:05;;;;;;;58.35;19.73;;;;;;;;;;8258863;28;20053;-90
2022/11/26 23:34:09;;;;;;;76.25;21.85;;;;;;;;;;8255814;28;20426;-93
2022/11/26 23:38:12;;;;;;;68.80;21.17;;;;;;;;;;8246611;28;20052;-91
2022/11/26 23:42:14;;;;;;;58.10;19.15;;;;;;;;;;8247778;28;20121;-90
2022/11/26 23:46:19;;;;;;;52.40;18.05;;;;;;;;;;8267027;28;20042;-92